sensor_id;sensor_type;location;lat;lon;timestamp;temperature;humidity
17092;DHT22;8661;45.700;4.880;2023-11-25T00:00:52;5.40;99.90
17092;DHT22;8661;45.700;4.880;2023-11-25T00:03:19;5.30;99.90
17092;DHT22;8661;45.700;4.880;2023-11-25T00:05:45;5.30;99.90
17092;DHT22;8661;45.700;4.880;2023-11-25T00:08:12;5.30;99.90
17092;DHT22;8661;45.700;4.880;2023-11-25T00:10:39;5.40;99.90
17092;DHT22;8661;45.700;4.880;2023-11-25T00:13:06;5.40;99.90
17092;DHT22;8661;45.700;4.880;2023-11-25T00:15:34;5.40;99.90
17092;DHT22;8661;45.700;4.880;2023-11-25T00:18:02;5.40;99.90
17092;DHT22;8661;45.700;4.880;2023-11-25T00:20:29;5.40;99.90
17092;DHT22;8661;45.700;4.880;2023-11-25T00:22:56;5.50;99.90
17092;DHT22;8661;45.700;4.880;2023-11-25T00:25:23;5.60;99.90
17092;DHT22;8661;45.700;4.880;2023-11-25T00:27:50;5.50;99.90
17092;DHT22;8661;45.700;4.880;2023-11-25T00:30:17;5.60;99.90
17092;DHT22;8661;45.700;4.880;2023-11-25T00:32:45;5.50;99.90
17092;DHT22;8661;45.700;4.880;2023-11-25T00:35:13;5.50;99.90
17092;DHT22;8661;45.700;4.880;2023-11-25T00:37:40;5.50;99.90
17092;DHT22;8661;45.700;4.880;2023-11-25T00:40:08;5.40;99.90
17092;DHT22;8661;45.700;4.880;2023-11-25T00:42:36;5.40;99.90
17092;DHT22;8661;45.700;4.880;2023-11-25T00:45:06;5.30;99.90
17092;DHT22;8661;45.700;4.880;2023-11-25T00:47:33;5.20;99.90
17092;DHT22;8661;45.700;4.880;2023-11-25T00:50:00;5.20;99.90
17092;DHT22;8661;45.700;4.880;2023-11-25T00:52:29;5.20;99.90
17092;DHT22;8661;45.700;4.880;2023-11-25T00:54:56;5.20;99.90
17092;DHT22;8661;45.700;4.880;2023-11-25T00:57:24;5.20;99.90
17092;DHT22;8661;45.700;4.880;2023-11-25T00:59:50;5.20;99.90
17092;DHT22;8661;45.700;4.880;2023-11-25T01:02:17;5.20;99.90
17092;DHT22;8661;45.700;4.880;2023-11-25T01:04:44;5.20;99.90
17092;DHT22;8661;45.700;4.880;2023-11-25T01:07:11;5.20;99.90
17092;DHT22;8661;45.700;4.880;2023-11-25T01:09:39;5.30;99.90
17092;DHT22;8661;45.700;4.880;2023-11-25T01:12:07;5.20;99.90
17092;DHT22;8661;45.700;4.880;2023-11-25T01:14:34;5.20;99.90
17092;DHT22;8661;45.700;4.880;2023-11-25T01:17:00;5.20;99.90
17092;DHT22;8661;45.700;4.880;2023-11-25T01:19:28;5.20;99.90
17092;DHT22;8661;45.700;4.880;2023-11-25T01:21:55;5.20;99.90
17092;DHT22;8661;45.700;4.880;2023-11-25T01:24:22;5.10;99.90
17092;DHT22;8661;45.700;4.880;2023-11-25T01:26:50;5.10;99.90
17092;DHT22;8661;45.700;4.880;2023-11-25T01:29:17;5.10;99.90
17092;DHT22;8661;45.700;4.880;2023-11-25T01:31:44;5.00;99.90
17092;DHT22;8661;45.700;4.880;2023-11-25T01:34:11;5.10;99.90
17092;DHT22;8661;45.700;4.880;2023-11-25T01:36:38;5.10;99.90
17092;DHT22;8661;45.700;4.880;2023-11-25T01:39:05;5.10;99.90
17092;DHT22;8661;45.700;4.880;2023-11-25T01:41:32;5.10;99.90
17092;DHT22;8661;45.700;4.880;2023-11-25T01:44:00;5.20;99.90
17092;DHT22;8661;45.700;4.880;2023-11-25T01:46:33;5.20;99.90
17092;DHT22;8661;45.700;4.880;2023-11-25T01:49:03;5.20;99.90
17092;DHT22;8661;45.700;4.880;2023-11-25T01:51:31;5.20;99.90
17092;DHT22;8661;45.700;4.880;2023-11-25T01:53:59;5.30;99.90
17092;DHT22;8661;45.700;4.880;2023-11-25T01:56:26;5.30;99.90
17092;DHT22;8661;45.700;4.880;2023-11-25T01:58:54;5.30;99.90
17092;DHT22;8661;45.700;4.880;2023-11-25T02:01:25;5.30;99.90
17092;DHT22;8661;45.700;4.880;2023-11-25T02:03:52;5.30;99.90
17092;DHT22;8661;45.700;4.880;2023-11-25T02:06:34;5.30;99.90
17092;DHT22;8661;45.700;4.880;2023-11-25T02:09:01;5.30;99.90
17092;DHT22;8661;45.700;4.880;2023-11-25T02:11:28;5.20;99.90
17092;DHT22;8661;45.700;4.880;2023-11-25T02:13:55;5.10;99.90
17092;DHT22;8661;45.700;4.880;2023-11-25T02:16:24;5.00;99.90
17092;DHT22;8661;45.700;4.880;2023-11-25T02:18:51;4.90;99.90
17092;DHT22;8661;45.700;4.880;2023-11-25T02:21:18;4.80;99.90
17092;DHT22;8661;45.700;4.880;2023-11-25T02:23:47;4.80;99.90
17092;DHT22;8661;45.700;4.880;2023-11-25T02:26:14;4.80;99.90
17092;DHT22;8661;45.700;4.880;2023-11-25T02:28:41;4.80;99.90
17092;DHT22;8661;45.700;4.880;2023-11-25T02:31:09;4.80;99.90
17092;DHT22;8661;45.700;4.880;2023-11-25T02:33:37;4.80;99.90
17092;DHT22;8661;45.700;4.880;2023-11-25T02:36:05;4.80;99.90
17092;DHT22;8661;45.700;4.880;2023-11-25T02:38:34;4.90;99.90
17092;DHT22;8661;45.700;4.880;2023-11-25T02:41:02;4.90;99.90
17092;DHT22;8661;45.700;4.880;2023-11-25T02:43:29;5.00;99.90
17092;DHT22;8661;45.700;4.880;2023-11-25T02:45:57;5.00;99.90
17092;DHT22;8661;45.700;4.880;2023-11-25T02:48:24;5.00;99.90
17092;DHT22;8661;45.700;4.880;2023-11-25T02:50:51;5.10;99.90
17092;DHT22;8661;45.700;4.880;2023-11-25T02:53:18;5.20;99.90
17092;DHT22;8661;45.700;4.880;2023-11-25T02:55:45;5.20;99.90
17092;DHT22;8661;45.700;4.880;2023-11-25T02:58:14;5.20;99.90
17092;DHT22;8661;45.700;4.880;2023-11-25T03:00:42;5.20;99.90
17092;DHT22;8661;45.700;4.880;2023-11-25T03:03:10;5.30;99.90
17092;DHT22;8661;45.700;4.880;2023-11-25T03:05:40;5.30;99.90
17092;DHT22;8661;45.700;4.880;2023-11-25T03:08:11;5.30;99.90
17092;DHT22;8661;45.700;4.880;2023-11-25T03:10:39;5.30;99.90
17092;DHT22;8661;45.700;4.880;2023-11-25T03:13:08;5.30;99.90
17092;DHT22;8661;45.700;4.880;2023-11-25T03:15:38;5.40;99.90
17092;DHT22;8661;45.700;4.880;2023-11-25T03:18:05;5.30;99.90
17092;DHT22;8661;45.700;4.880;2023-11-25T03:20:32;5.30;99.90
17092;DHT22;8661;45.700;4.880;2023-11-25T03:23:00;5.30;99.90
17092;DHT22;8661;45.700;4.880;2023-11-25T03:25:26;5.20;99.90
17092;DHT22;8661;45.700;4.880;2023-11-25T03:27:55;5.10;99.90
17092;DHT22;8661;45.700;4.880;2023-11-25T03:30:22;5.10;99.90
17092;DHT22;8661;45.700;4.880;2023-11-25T03:32:50;5.00;99.90
17092;DHT22;8661;45.700;4.880;2023-11-25T03:35:17;5.00;99.90
17092;DHT22;8661;45.700;4.880;2023-11-25T03:37:44;5.00;99.90
17092;DHT22;8661;45.700;4.880;2023-11-25T03:40:11;5.00;99.90
17092;DHT22;8661;45.700;4.880;2023-11-25T03:42:41;5.10;99.90
17092;DHT22;8661;45.700;4.880;2023-11-25T03:45:09;5.10;99.90
17092;DHT22;8661;45.700;4.880;2023-11-25T03:47:38;5.10;99.90
17092;DHT22;8661;45.700;4.880;2023-11-25T03:50:07;5.10;99.90
17092;DHT22;8661;45.700;4.880;2023-11-25T03:52:35;5.20;99.90
17092;DHT22;8661;45.700;4.880;2023-11-25T03:55:02;5.10;99.90
17092;DHT22;8661;45.700;4.880;2023-11-25T03:57:29;5.20;99.90
17092;DHT22;8661;45.700;4.880;2023-11-25T03:59:56;5.10;99.90
17092;DHT22;8661;45.700;4.880;2023-11-25T04:02:23;5.10;99.90
17092;DHT22;8661;45.700;4.880;2023-11-25T04:04:50;5.10;99.90
17092;DHT22;8661;45.700;4.880;2023-11-25T04:07:18;5.10;99.90
17092;DHT22;8661;45.700;4.880;2023-11-25T04:09:45;5.10;99.90
17092;DHT22;8661;45.700;4.880;2023-11-25T04:12:12;5.10;99.90
17092;DHT22;8661;45.700;4.880;2023-11-25T04:14:39;5.10;99.90
17092;DHT22;8661;45.700;4.880;2023-11-25T04:17:06;5.20;99.90
17092;DHT22;8661;45.700;4.880;2023-11-25T04:19:33;5.10;99.90
17092;DHT22;8661;45.700;4.880;2023-11-25T04:22:01;5.10;99.90
17092;DHT22;8661;45.700;4.880;2023-11-25T04:24:30;5.10;99.90
17092;DHT22;8661;45.700;4.880;2023-11-25T04:26:58;5.10;99.90
17092;DHT22;8661;45.700;4.880;2023-11-25T04:29:25;5.10;99.90
17092;DHT22;8661;45.700;4.880;2023-11-25T04:31:52;5.10;99.90
17092;DHT22;8661;45.700;4.880;2023-11-25T04:34:19;5.10;99.90
17092;DHT22;8661;45.700;4.880;2023-11-25T04:36:46;5.10;99.90
17092;DHT22;8661;45.700;4.880;2023-11-25T04:39:13;5.10;99.90
17092;DHT22;8661;45.700;4.880;2023-11-25T04:41:42;5.10;99.90
17092;DHT22;8661;45.700;4.880;2023-11-25T04:44:11;5.10;99.90
17092;DHT22;8661;45.700;4.880;2023-11-25T04:46:38;5.10;99.90
17092;DHT22;8661;45.700;4.880;2023-11-25T04:49:05;5.10;99.90
17092;DHT22;8661;45.700;4.880;2023-11-25T04:51:32;5.10;99.90
17092;DHT22;8661;45.700;4.880;2023-11-25T04:54:00;5.10;99.90
17092;DHT22;8661;45.700;4.880;2023-11-25T04:56:27;5.10;99.90
17092;DHT22;8661;45.700;4.880;2023-11-25T04:58:55;5.10;99.90
17092;DHT22;8661;45.700;4.880;2023-11-25T05:01:22;5.10;99.90
17092;DHT22;8661;45.700;4.880;2023-11-25T05:03:53;5.10;99.90
17092;DHT22;8661;45.700;4.880;2023-11-25T05:06:20;5.10;99.90
17092;DHT22;8661;45.700;4.880;2023-11-25T05:08:47;5.00;99.90
17092;DHT22;8661;45.700;4.880;2023-11-25T05:11:14;5.10;99.90
17092;DHT22;8661;45.700;4.880;2023-11-25T05:13:40;5.10;99.90
17092;DHT22;8661;45.700;4.880;2023-11-25T05:16:10;5.10;99.90
17092;DHT22;8661;45.700;4.880;2023-11-25T05:18:37;5.00;99.90
17092;DHT22;8661;45.700;4.880;2023-11-25T05:21:04;4.90;99.90
17092;DHT22;8661;45.700;4.880;2023-11-25T05:23:33;5.00;99.90
17092;DHT22;8661;45.700;4.880;2023-11-25T05:26:00;5.00;99.90
17092;DHT22;8661;45.700;4.880;2023-11-25T05:28:27;5.00;99.90
17092;DHT22;8661;45.700;4.880;2023-11-25T05:30:54;5.00;99.90
17092;DHT22;8661;45.700;4.880;2023-11-25T05:33:22;5.10;99.90
17092;DHT22;8661;45.700;4.880;2023-11-25T05:35:49;5.10;99.90
17092;DHT22;8661;45.700;4.880;2023-11-25T05:38:16;5.10;99.90
17092;DHT22;8661;45.700;4.880;2023-11-25T05:40:44;5.20;99.90
17092;DHT22;8661;45.700;4.880;2023-11-25T05:43:12;5.20;99.90
17092;DHT22;8661;45.700;4.880;2023-11-25T05:45:39;5.20;99.90
17092;DHT22;8661;45.700;4.880;2023-11-25T05:48:06;5.30;99.90
17092;DHT22;8661;45.700;4.880;2023-11-25T05:50:34;5.30;99.90
17092;DHT22;8661;45.700;4.880;2023-11-25T05:53:02;5.30;99.90
17092;DHT22;8661;45.700;4.880;2023-11-25T05:55:29;5.30;99.90
17092;DHT22;8661;45.700;4.880;2023-11-25T05:57:56;5.30;99.90
17092;DHT22;8661;45.700;4.880;2023-11-25T06:00:22;5.30;99.90
17092;DHT22;8661;45.700;4.880;2023-11-25T06:02:49;5.30;99.90
17092;DHT22;8661;45.700;4.880;2023-11-25T06:05:17;5.30;99.90
17092;DHT22;8661;45.700;4.880;2023-11-25T06:07:45;5.20;99.90
17092;DHT22;8661;45.700;4.880;2023-11-25T06:10:12;5.20;99.90
17092;DHT22;8661;45.700;4.880;2023-11-25T06:12:39;5.20;99.90
17092;DHT22;8661;45.700;4.880;2023-11-25T06:15:07;5.10;99.90
17092;DHT22;8661;45.700;4.880;2023-11-25T06:17:35;5.00;99.90
17092;DHT22;8661;45.700;4.880;2023-11-25T06:20:03;5.00;99.90
17092;DHT22;8661;45.700;4.880;2023-11-25T06:22:30;4.90;99.90
17092;DHT22;8661;45.700;4.880;2023-11-25T06:24:58;4.80;99.90
17092;DHT22;8661;45.700;4.880;2023-11-25T06:27:26;4.80;99.90
17092;DHT22;8661;45.700;4.880;2023-11-25T06:29:52;4.70;99.90
17092;DHT22;8661;45.700;4.880;2023-11-25T06:32:19;4.70;99.90
17092;DHT22;8661;45.700;4.880;2023-11-25T06:34:46;4.60;99.90
17092;DHT22;8661;45.700;4.880;2023-11-25T06:37:13;4.60;99.90
17092;DHT22;8661;45.700;4.880;2023-11-25T06:39:40;4.50;99.90
17092;DHT22;8661;45.700;4.880;2023-11-25T06:42:09;4.50;99.90
17092;DHT22;8661;45.700;4.880;2023-11-25T06:44:35;4.50;99.90
17092;DHT22;8661;45.700;4.880;2023-11-25T06:47:03;4.40;99.90
17092;DHT22;8661;45.700;4.880;2023-11-25T06:49:30;4.30;99.90
17092;DHT22;8661;45.700;4.880;2023-11-25T06:51:57;4.30;99.90
17092;DHT22;8661;45.700;4.880;2023-11-25T06:54:24;4.30;99.90
17092;DHT22;8661;45.700;4.880;2023-11-25T06:56:52;4.30;99.90
17092;DHT22;8661;45.700;4.880;2023-11-25T06:59:20;4.20;99.90
17092;DHT22;8661;45.700;4.880;2023-11-25T07:01:47;4.20;99.90
17092;DHT22;8661;45.700;4.880;2023-11-25T07:04:14;4.10;99.90
17092;DHT22;8661;45.700;4.880;2023-11-25T07:06:41;4.20;99.90
17092;DHT22;8661;45.700;4.880;2023-11-25T07:09:08;4.10;99.90
17092;DHT22;8661;45.700;4.880;2023-11-25T07:11:36;4.10;99.90
17092;DHT22;8661;45.700;4.880;2023-11-25T07:14:03;4.10;99.90
17092;DHT22;8661;45.700;4.880;2023-11-25T07:16:32;4.10;99.90
17092;DHT22;8661;45.700;4.880;2023-11-25T07:18:59;4.20;99.90
17092;DHT22;8661;45.700;4.880;2023-11-25T07:21:27;4.30;99.90
17092;DHT22;8661;45.700;4.880;2023-11-25T07:23:54;4.40;99.90
17092;DHT22;8661;45.700;4.880;2023-11-25T07:26:21;4.50;99.90
17092;DHT22;8661;45.700;4.880;2023-11-25T07:28:48;4.70;99.90
17092;DHT22;8661;45.700;4.880;2023-11-25T07:31:15;4.80;99.90
17092;DHT22;8661;45.700;4.880;2023-11-25T07:33:43;4.90;99.90
17092;DHT22;8661;45.700;4.880;2023-11-25T07:36:10;5.00;99.90
17092;DHT22;8661;45.700;4.880;2023-11-25T07:38:37;5.00;99.90
17092;DHT22;8661;45.700;4.880;2023-11-25T07:41:04;5.00;99.90
17092;DHT22;8661;45.700;4.880;2023-11-25T07:43:32;5.10;99.90
17092;DHT22;8661;45.700;4.880;2023-11-25T07:45:59;5.00;99.90
17092;DHT22;8661;45.700;4.880;2023-11-25T07:48:25;5.10;99.90
17092;DHT22;8661;45.700;4.880;2023-11-25T07:50:54;5.10;99.90
17092;DHT22;8661;45.700;4.880;2023-11-25T07:53:21;5.20;99.90
17092;DHT22;8661;45.700;4.880;2023-11-25T07:56:00;5.10;99.90
17092;DHT22;8661;45.700;4.880;2023-11-25T07:58:27;5.10;99.90
17092;DHT22;8661;45.700;4.880;2023-11-25T08:00:55;5.20;99.90
17092;DHT22;8661;45.700;4.880;2023-11-25T08:03:23;5.30;99.90
17092;DHT22;8661;45.700;4.880;2023-11-25T08:05:50;5.30;99.90
17092;DHT22;8661;45.700;4.880;2023-11-25T08:08:18;5.30;99.90
17092;DHT22;8661;45.700;4.880;2023-11-25T08:10:46;5.30;99.90
17092;DHT22;8661;45.700;4.880;2023-11-25T08:13:13;5.30;99.90
17092;DHT22;8661;45.700;4.880;2023-11-25T08:15:43;5.40;99.90
17092;DHT22;8661;45.700;4.880;2023-11-25T08:18:25;5.30;99.90
17092;DHT22;8661;45.700;4.880;2023-11-25T08:20:52;5.30;99.90
17092;DHT22;8661;45.700;4.880;2023-11-25T08:23:20;5.40;99.90
17092;DHT22;8661;45.700;4.880;2023-11-25T08:25:47;5.30;99.90
17092;DHT22;8661;45.700;4.880;2023-11-25T08:28:15;5.30;99.90
17092;DHT22;8661;45.700;4.880;2023-11-25T08:30:42;5.40;99.90
17092;DHT22;8661;45.700;4.880;2023-11-25T08:33:09;5.30;99.90
17092;DHT22;8661;45.700;4.880;2023-11-25T08:35:36;5.40;99.90
17092;DHT22;8661;45.700;4.880;2023-11-25T08:38:04;5.50;99.90
17092;DHT22;8661;45.700;4.880;2023-11-25T08:40:32;5.50;99.90
17092;DHT22;8661;45.700;4.880;2023-11-25T08:43:00;5.70;99.90
17092;DHT22;8661;45.700;4.880;2023-11-25T08:45:34;5.80;99.90
17092;DHT22;8661;45.700;4.880;2023-11-25T08:48:01;5.80;99.90
17092;DHT22;8661;45.700;4.880;2023-11-25T08:50:27;5.90;99.90
17092;DHT22;8661;45.700;4.880;2023-11-25T08:52:55;6.00;99.90
17092;DHT22;8661;45.700;4.880;2023-11-25T08:55:22;6.10;99.90
17092;DHT22;8661;45.700;4.880;2023-11-25T08:57:52;6.20;99.90
17092;DHT22;8661;45.700;4.880;2023-11-25T09:00:19;6.40;99.90
17092;DHT22;8661;45.700;4.880;2023-11-25T09:02:48;6.50;99.90
17092;DHT22;8661;45.700;4.880;2023-11-25T09:05:16;6.60;99.90
17092;DHT22;8661;45.700;4.880;2023-11-25T09:07:47;6.70;99.90
17092;DHT22;8661;45.700;4.880;2023-11-25T09:10:16;6.70;99.90
17092;DHT22;8661;45.700;4.880;2023-11-25T09:12:43;7.00;99.90
17092;DHT22;8661;45.700;4.880;2023-11-25T09:15:12;7.20;99.90
17092;DHT22;8661;45.700;4.880;2023-11-25T09:17:39;7.30;99.90
17092;DHT22;8661;45.700;4.880;2023-11-25T09:20:08;7.60;99.90
17092;DHT22;8661;45.700;4.880;2023-11-25T09:22:38;7.70;99.90
17092;DHT22;8661;45.700;4.880;2023-11-25T09:25:05;7.60;99.90
17092;DHT22;8661;45.700;4.880;2023-11-25T09:27:35;7.70;99.90
17092;DHT22;8661;45.700;4.880;2023-11-25T09:30:02;7.80;99.90
17092;DHT22;8661;45.700;4.880;2023-11-25T09:32:31;7.80;99.90
17092;DHT22;8661;45.700;4.880;2023-11-25T09:34:58;7.70;99.90
17092;DHT22;8661;45.700;4.880;2023-11-25T09:37:25;7.60;99.90
17092;DHT22;8661;45.700;4.880;2023-11-25T09:39:52;7.60;99.90
17092;DHT22;8661;45.700;4.880;2023-11-25T09:42:19;7.50;99.90
17092;DHT22;8661;45.700;4.880;2023-11-25T09:44:47;7.40;99.90
17092;DHT22;8661;45.700;4.880;2023-11-25T09:47:15;7.40;99.90
17092;DHT22;8661;45.700;4.880;2023-11-25T09:49:43;7.40;99.90
17092;DHT22;8661;45.700;4.880;2023-11-25T09:52:15;7.30;99.90
17092;DHT22;8661;45.700;4.880;2023-11-25T09:54:45;7.30;99.90
17092;DHT22;8661;45.700;4.880;2023-11-25T09:57:14;7.30;99.90
17092;DHT22;8661;45.700;4.880;2023-11-25T09:59:43;7.30;99.90
17092;DHT22;8661;45.700;4.880;2023-11-25T10:02:10;7.20;99.90
17092;DHT22;8661;45.700;4.880;2023-11-25T10:04:39;7.30;99.90
17092;DHT22;8661;45.700;4.880;2023-11-25T10:07:08;7.20;99.90
17092;DHT22;8661;45.700;4.880;2023-11-25T10:09:37;7.20;99.90
17092;DHT22;8661;45.700;4.880;2023-11-25T10:12:06;7.20;99.90
17092;DHT22;8661;45.700;4.880;2023-11-25T10:14:33;7.30;99.90
17092;DHT22;8661;45.700;4.880;2023-11-25T10:17:15;7.40;99.90
17092;DHT22;8661;45.700;4.880;2023-11-25T10:19:44;7.40;99.90
17092;DHT22;8661;45.700;4.880;2023-11-25T10:22:14;7.40;99.90
17092;DHT22;8661;45.700;4.880;2023-11-25T10:24:45;7.40;99.90
17092;DHT22;8661;45.700;4.880;2023-11-25T10:27:12;7.30;99.90
17092;DHT22;8661;45.700;4.880;2023-11-25T10:29:40;7.40;99.90
17092;DHT22;8661;45.700;4.880;2023-11-25T10:32:08;7.50;99.90
17092;DHT22;8661;45.700;4.880;2023-11-25T10:34:35;7.50;99.90
17092;DHT22;8661;45.700;4.880;2023-11-25T10:37:03;7.60;99.90
17092;DHT22;8661;45.700;4.880;2023-11-25T10:39:33;7.70;99.90
17092;DHT22;8661;45.700;4.880;2023-11-25T10:42:01;7.70;99.90
17092;DHT22;8661;45.700;4.880;2023-11-25T10:44:30;7.80;99.90
17092;DHT22;8661;45.700;4.880;2023-11-25T10:46:57;7.90;99.90
17092;DHT22;8661;45.700;4.880;2023-11-25T10:49:25;8.00;99.90
17092;DHT22;8661;45.700;4.880;2023-11-25T10:51:57;8.10;99.90
17092;DHT22;8661;45.700;4.880;2023-11-25T10:54:28;8.10;99.90
17092;DHT22;8661;45.700;4.880;2023-11-25T10:56:58;8.10;99.90
17092;DHT22;8661;45.700;4.880;2023-11-25T10:59:31;8.10;99.90
17092;DHT22;8661;45.700;4.880;2023-11-25T11:01:59;8.10;99.90
17092;DHT22;8661;45.700;4.880;2023-11-25T11:04:36;8.30;99.90
17092;DHT22;8661;45.700;4.880;2023-11-25T11:07:08;8.40;99.90
17092;DHT22;8661;45.700;4.880;2023-11-25T11:09:42;8.70;99.90
17092;DHT22;8661;45.700;4.880;2023-11-25T11:12:16;8.50;99.90
17092;DHT22;8661;45.700;4.880;2023-11-25T11:14:55;8.40;99.90
17092;DHT22;8661;45.700;4.880;2023-11-25T11:17:36;8.40;99.90
17092;DHT22;8661;45.700;4.880;2023-11-25T11:20:05;8.10;99.90
17092;DHT22;8661;45.700;4.880;2023-11-25T11:22:38;7.90;99.90
17092;DHT22;8661;45.700;4.880;2023-11-25T11:25:12;8.00;99.90
17092;DHT22;8661;45.700;4.880;2023-11-25T11:27:49;7.90;99.90
17092;DHT22;8661;45.700;4.880;2023-11-25T11:30:24;7.90;99.90
17092;DHT22;8661;45.700;4.880;2023-11-25T11:32:53;7.80;99.90
17092;DHT22;8661;45.700;4.880;2023-11-25T11:35:34;7.70;99.90
17092;DHT22;8661;45.700;4.880;2023-11-25T11:38:04;7.60;99.90
17092;DHT22;8661;45.700;4.880;2023-11-25T11:40:48;7.50;99.90
17092;DHT22;8661;45.700;4.880;2023-11-25T11:43:19;7.50;99.90
17092;DHT22;8661;45.700;4.880;2023-11-25T11:45:46;7.60;99.90
17092;DHT22;8661;45.700;4.880;2023-11-25T11:48:14;7.70;99.90
17092;DHT22;8661;45.700;4.880;2023-11-25T11:50:42;7.70;99.90
17092;DHT22;8661;45.700;4.880;2023-11-25T11:53:13;7.70;99.90
17092;DHT22;8661;45.700;4.880;2023-11-25T11:55:41;7.80;99.90
17092;DHT22;8661;45.700;4.880;2023-11-25T11:58:11;7.80;99.90
17092;DHT22;8661;45.700;4.880;2023-11-25T12:00:52;7.80;99.90
17092;DHT22;8661;45.700;4.880;2023-11-25T12:03:19;7.80;99.90
17092;DHT22;8661;45.700;4.880;2023-11-25T12:05:47;7.80;99.90
17092;DHT22;8661;45.700;4.880;2023-11-25T12:08:14;7.80;99.90
17092;DHT22;8661;45.700;4.880;2023-11-25T12:10:41;8.10;99.90
17092;DHT22;8661;45.700;4.880;2023-11-25T12:13:09;9.00;99.90
17092;DHT22;8661;45.700;4.880;2023-11-25T12:15:38;10.20;99.90
17092;DHT22;8661;45.700;4.880;2023-11-25T12:18:09;10.70;99.90
17092;DHT22;8661;45.700;4.880;2023-11-25T12:20:38;10.70;99.90
17092;DHT22;8661;45.700;4.880;2023-11-25T12:23:06;11.00;99.90
17092;DHT22;8661;45.700;4.880;2023-11-25T12:25:35;11.40;99.90
17092;DHT22;8661;45.700;4.880;2023-11-25T12:28:05;11.20;99.90
17092;DHT22;8661;45.700;4.880;2023-11-25T12:30:50;12.20;99.90
17092;DHT22;8661;45.700;4.880;2023-11-25T12:33:19;13.60;99.80
17092;DHT22;8661;45.700;4.880;2023-11-25T12:35:46;15.10;96.40
17092;DHT22;8661;45.700;4.880;2023-11-25T12:38:13;16.00;93.90
17092;DHT22;8661;45.700;4.880;2023-11-25T12:40:41;15.50;91.40
17092;DHT22;8661;45.700;4.880;2023-11-25T12:43:10;15.10;91.70
17092;DHT22;8661;45.700;4.880;2023-11-25T12:45:38;14.90;91.60
17092;DHT22;8661;45.700;4.880;2023-11-25T12:48:07;14.20;92.10
17092;DHT22;8661;45.700;4.880;2023-11-25T12:50:59;13.60;91.90
17092;DHT22;8661;45.700;4.880;2023-11-25T12:53:26;12.90;93.00
17092;DHT22;8661;45.700;4.880;2023-11-25T12:55:54;12.70;93.80
17092;DHT22;8661;45.700;4.880;2023-11-25T12:58:22;12.40;94.10
17092;DHT22;8661;45.700;4.880;2023-11-25T13:00:51;12.10;94.20
17092;DHT22;8661;45.700;4.880;2023-11-25T13:03:22;11.90;94.80
17092;DHT22;8661;45.700;4.880;2023-11-25T13:05:56;11.80;95.20
17092;DHT22;8661;45.700;4.880;2023-11-25T13:08:24;11.50;94.90
17092;DHT22;8661;45.700;4.880;2023-11-25T13:10:54;11.00;95.40
17092;DHT22;8661;45.700;4.880;2023-11-25T13:13:22;10.90;95.60
17092;DHT22;8661;45.700;4.880;2023-11-25T13:15:49;10.90;95.50
17092;DHT22;8661;45.700;4.880;2023-11-25T13:18:19;10.70;95.90
17092;DHT22;8661;45.700;4.880;2023-11-25T13:20:48;10.50;96.40
17092;DHT22;8661;45.700;4.880;2023-11-25T13:23:17;10.30;96.40
17092;DHT22;8661;45.700;4.880;2023-11-25T13:25:45;10.20;96.70
17092;DHT22;8661;45.700;4.880;2023-11-25T13:28:13;10.20;96.80
17092;DHT22;8661;45.700;4.880;2023-11-25T13:30:42;10.20;96.60
17092;DHT22;8661;45.700;4.880;2023-11-25T13:33:10;10.10;96.50
17092;DHT22;8661;45.700;4.880;2023-11-25T13:35:39;10.00;96.70
17092;DHT22;8661;45.700;4.880;2023-11-25T13:38:06;9.80;96.70
17092;DHT22;8661;45.700;4.880;2023-11-25T13:40:35;9.90;97.20
17092;DHT22;8661;45.700;4.880;2023-11-25T13:43:04;9.70;96.90
17092;DHT22;8661;45.700;4.880;2023-11-25T13:45:32;9.70;96.90
17092;DHT22;8661;45.700;4.880;2023-11-25T13:47:59;9.60;96.70
17092;DHT22;8661;45.700;4.880;2023-11-25T13:50:31;9.50;97.10
17092;DHT22;8661;45.700;4.880;2023-11-25T13:52:57;9.40;97.40
17092;DHT22;8661;45.700;4.880;2023-11-25T13:55:24;9.40;97.50
17092;DHT22;8661;45.700;4.880;2023-11-25T13:57:53;9.30;97.40
17092;DHT22;8661;45.700;4.880;2023-11-25T14:00:20;9.10;97.40
17092;DHT22;8661;45.700;4.880;2023-11-25T14:02:49;9.00;97.20
17092;DHT22;8661;45.700;4.880;2023-11-25T14:05:16;9.00;97.20
17092;DHT22;8661;45.700;4.880;2023-11-25T14:07:44;9.00;97.20
17092;DHT22;8661;45.700;4.880;2023-11-25T14:10:13;9.00;97.20
17092;DHT22;8661;45.700;4.880;2023-11-25T14:12:40;9.00;97.40
17092;DHT22;8661;45.700;4.880;2023-11-25T14:15:10;8.90;98.10
17092;DHT22;8661;45.700;4.880;2023-11-25T14:17:37;8.90;97.90
17092;DHT22;8661;45.700;4.880;2023-11-25T14:20:06;8.80;97.70
17092;DHT22;8661;45.700;4.880;2023-11-25T14:22:41;8.70;97.40
17092;DHT22;8661;45.700;4.880;2023-11-25T14:25:09;8.60;97.60
17092;DHT22;8661;45.700;4.880;2023-11-25T14:27:36;8.60;97.90
17092;DHT22;8661;45.700;4.880;2023-11-25T14:30:04;8.40;98.00
17092;DHT22;8661;45.700;4.880;2023-11-25T14:32:33;8.50;98.00
17092;DHT22;8661;45.700;4.880;2023-11-25T14:35:00;8.50;97.80
17092;DHT22;8661;45.700;4.880;2023-11-25T14:37:27;8.50;97.70
17092;DHT22;8661;45.700;4.880;2023-11-25T14:39:55;8.50;97.70
17092;DHT22;8661;45.700;4.880;2023-11-25T14:42:22;8.40;97.70
17092;DHT22;8661;45.700;4.880;2023-11-25T14:44:49;8.50;97.60
17092;DHT22;8661;45.700;4.880;2023-11-25T14:47:17;8.60;97.70
17092;DHT22;8661;45.700;4.880;2023-11-25T14:49:46;8.70;97.80
17092;DHT22;8661;45.700;4.880;2023-11-25T14:52:12;8.90;97.40
17092;DHT22;8661;45.700;4.880;2023-11-25T14:54:39;8.80;97.20
17092;DHT22;8661;45.700;4.880;2023-11-25T14:57:06;8.80;97.20
17092;DHT22;8661;45.700;4.880;2023-11-25T14:59:34;8.70;97.60
17092;DHT22;8661;45.700;4.880;2023-11-25T15:02:01;8.70;98.00
17092;DHT22;8661;45.700;4.880;2023-11-25T15:04:28;8.70;97.90
17092;DHT22;8661;45.700;4.880;2023-11-25T15:06:56;8.80;97.60
17092;DHT22;8661;45.700;4.880;2023-11-25T15:09:24;8.90;97.60
17092;DHT22;8661;45.700;4.880;2023-11-25T15:11:51;8.60;97.50
17092;DHT22;8661;45.700;4.880;2023-11-25T15:14:18;8.40;97.70
17092;DHT22;8661;45.700;4.880;2023-11-25T15:16:45;8.20;97.80
17092;DHT22;8661;45.700;4.880;2023-11-25T15:19:12;8.20;98.00
17092;DHT22;8661;45.700;4.880;2023-11-25T15:21:39;8.10;98.30
17092;DHT22;8661;45.700;4.880;2023-11-25T15:24:10;8.00;98.60
17092;DHT22;8661;45.700;4.880;2023-11-25T15:26:40;7.90;99.00
17092;DHT22;8661;45.700;4.880;2023-11-25T15:29:08;7.90;99.30
17092;DHT22;8661;45.700;4.880;2023-11-25T15:31:36;7.90;99.40
17092;DHT22;8661;45.700;4.880;2023-11-25T15:34:05;7.80;99.80
17092;DHT22;8661;45.700;4.880;2023-11-25T15:36:33;7.60;99.90
17092;DHT22;8661;45.700;4.880;2023-11-25T15:39:00;7.60;99.90
17092;DHT22;8661;45.700;4.880;2023-11-25T15:41:31;7.40;99.90
17092;DHT22;8661;45.700;4.880;2023-11-25T15:43:58;7.40;99.90
17092;DHT22;8661;45.700;4.880;2023-11-25T15:46:25;7.30;99.90
17092;DHT22;8661;45.700;4.880;2023-11-25T15:48:53;7.20;99.90
17092;DHT22;8661;45.700;4.880;2023-11-25T15:51:20;7.10;99.90
17092;DHT22;8661;45.700;4.880;2023-11-25T15:53:51;6.90;99.90
17092;DHT22;8661;45.700;4.880;2023-11-25T15:56:17;6.90;99.90
17092;DHT22;8661;45.700;4.880;2023-11-25T15:58:47;6.80;99.90
17092;DHT22;8661;45.700;4.880;2023-11-25T16:01:14;6.60;99.90
17092;DHT22;8661;45.700;4.880;2023-11-25T16:03:42;6.50;99.90
17092;DHT22;8661;45.700;4.880;2023-11-25T16:06:09;6.40;99.90